createdAt,value
2022-11-22T00:02:13.442Z,2.67
2022-11-22T00:04:41.947Z,2.68
2022-11-22T00:07:10.380Z,2.66
2022-11-22T00:09:38.739Z,2.66
2022-11-22T00:12:07.146Z,2.62
2022-11-22T00:14:36.973Z,2.57
2022-11-22T00:17:05.279Z,2.48
2022-11-22T00:19:33.542Z,2.61
2022-11-22T00:22:01.866Z,2.60
2022-11-22T00:24:30.113Z,2.60
2022-11-22T00:26:58.347Z,2.61
2022-11-22T00:29:27.089Z,2.66
2022-11-22T00:31:56.935Z,2.62
2022-11-22T00:34:25.400Z,2.69
2022-11-22T00:36:53.669Z,2.68
2022-11-22T00:39:22.135Z,2.66
2022-11-22T00:41:50.461Z,2.71
2022-11-22T00:44:19.090Z,2.68
2022-11-22T00:46:47.411Z,2.75
2022-11-22T00:49:17.329Z,2.76
2022-11-22T00:51:45.660Z,2.69
2022-11-22T00:54:13.968Z,2.73
2022-11-22T00:56:42.259Z,2.72
2022-11-22T00:59:10.561Z,2.68
2022-11-22T01:01:39.064Z,2.81
2022-11-22T01:04:07.387Z,2.72
2022-11-22T01:06:37.129Z,2.74
2022-11-22T01:09:05.444Z,2.90
2022-11-22T01:11:33.833Z,2.81
2022-11-22T01:14:02.100Z,2.71
2022-11-22T01:16:30.383Z,2.71
2022-11-22T01:18:58.636Z,2.66
2022-11-22T01:21:26.959Z,2.70
2022-11-22T01:23:56.653Z,2.70
2022-11-22T01:26:25.010Z,2.59
2022-11-22T01:28:53.286Z,2.56
2022-11-22T01:31:21.592Z,2.56
2022-11-22T01:33:49.967Z,2.59
2022-11-22T01:36:18.465Z,2.61
2022-11-22T01:38:46.712Z,2.60
2022-11-22T01:41:16.521Z,2.65
2022-11-22T01:43:44.771Z,2.60
2022-11-22T01:46:19.657Z,2.56
2022-11-22T01:48:51.334Z,2.54
2022-11-22T01:51:26.775Z,2.46
2022-11-22T01:53:57.827Z,2.43
2022-11-22T01:56:29.972Z,2.41
2022-11-22T01:59:00.563Z,2.39
2022-11-22T02:01:30.021Z,2.32
2022-11-22T02:03:59.382Z,2.33
2022-11-22T02:06:32.979Z,2.28
2022-11-22T02:09:05.441Z,2.15
2022-11-22T02:11:38.160Z,2.11
2022-11-22T02:14:07.011Z,2.12
2022-11-22T02:16:37.640Z,2.19
2022-11-22T02:19:07.198Z,2.30
2022-11-22T02:21:35.519Z,2.26
2022-11-22T02:24:08.863Z,2.30
2022-11-22T02:26:38.690Z,2.28
2022-11-22T02:29:09.065Z,2.19
2022-11-22T02:31:40.660Z,2.23
2022-11-22T02:34:09.195Z,2.28
2022-11-22T02:36:41.105Z,2.32
2022-11-22T02:39:11.487Z,2.38
2022-11-22T02:41:41.637Z,2.40
2022-11-22T02:44:11.068Z,2.43
2022-11-22T02:46:48.452Z,2.46
2022-11-22T02:49:18.862Z,2.50
2022-11-22T02:51:47.768Z,2.47
2022-11-22T02:54:16.392Z,2.44
2022-11-22T02:56:46.309Z,2.52
2022-11-22T02:59:14.677Z,2.49
2022-11-22T03:01:43.684Z,2.51
2022-11-22T03:04:25.100Z,2.57
2022-11-22T03:06:55.448Z,2.58
2022-11-22T03:09:23.877Z,2.47
2022-11-22T03:11:54.073Z,2.73
2022-11-22T03:14:22.502Z,2.63
2022-11-22T03:16:51.004Z,2.59
2022-11-22T03:19:19.409Z,2.64
2022-11-22T03:21:47.980Z,2.53
2022-11-22T03:24:16.398Z,2.55
2022-11-22T03:26:48.081Z,2.58
2022-11-22T03:29:18.176Z,2.61
2022-11-22T03:31:47.043Z,2.67
2022-11-22T03:34:15.576Z,2.70
2022-11-22T03:36:44.312Z,2.69
2022-11-22T03:39:12.658Z,2.71
2022-11-22T03:41:41.005Z,2.65
2022-11-22T03:44:09.550Z,2.62
2022-11-22T03:46:39.259Z,2.56
2022-11-22T03:49:07.575Z,2.62
2022-11-22T03:51:35.895Z,2.70
2022-11-22T03:54:04.187Z,2.78
2022-11-22T03:56:33.057Z,2.83
2022-11-22T03:59:01.772Z,2.81
2022-11-22T04:01:31.129Z,2.86
2022-11-22T04:04:00.887Z,2.87
2022-11-22T04:06:29.132Z,2.87
2022-11-22T04:08:57.509Z,2.84
2022-11-22T04:11:25.796Z,2.82
2022-11-22T04:14:11.211Z,2.74
2022-11-22T04:16:39.484Z,2.61
2022-11-22T04:19:09.246Z,2.75
2022-11-22T04:21:36.567Z,2.60
2022-11-22T04:24:24.123Z,2.60
2022-11-22T04:26:52.606Z,2.57
2022-11-22T04:29:21.464Z,2.62
2022-11-22T04:32:08.043Z,2.65
2022-11-22T04:34:38.001Z,2.65
2022-11-22T04:37:09.482Z,2.74
2022-11-22T04:39:37.770Z,2.88
2022-11-22T04:42:23.762Z,3.00
2022-11-22T04:44:52.076Z,2.87
2022-11-22T04:47:34.514Z,2.96
2022-11-22T04:50:24.984Z,2.76
2022-11-22T04:52:53.840Z,2.76
2022-11-22T04:55:22.386Z,2.95
2022-11-22T04:57:55.951Z,2.97
2022-11-22T05:00:28.226Z,2.87
2022-11-22T05:02:56.604Z,2.84
2022-11-22T05:05:27.162Z,2.87
2022-11-22T05:07:55.542Z,2.90
2022-11-22T05:10:26.836Z,2.93
2022-11-22T05:12:56.137Z,2.95
2022-11-22T05:15:24.579Z,2.97
2022-11-22T05:17:52.831Z,2.92
2022-11-22T05:20:21.147Z,2.88
2022-11-22T05:23:08.518Z,2.85
2022-11-22T05:25:36.878Z,2.88
2022-11-22T05:28:05.292Z,2.85
2022-11-22T05:30:33.523Z,2.86
2022-11-22T05:33:01.788Z,2.87
2022-11-22T05:35:30.047Z,2.86
2022-11-22T05:37:59.900Z,2.90
2022-11-22T05:40:28.264Z,2.83
2022-11-22T05:42:56.547Z,2.80
2022-11-22T05:45:24.825Z,2.81
2022-11-22T05:47:53.087Z,2.87
2022-11-22T05:50:21.441Z,2.82
2022-11-22T05:52:56.393Z,2.83
2022-11-22T05:55:26.130Z,2.83
2022-11-22T05:57:54.984Z,2.79
2022-11-22T06:00:23.549Z,2.81
2022-11-22T06:02:52.030Z,2.81
2022-11-22T06:05:20.338Z,2.65
2022-11-22T06:07:48.703Z,2.72
2022-11-22T06:10:17.767Z,2.76
2022-11-22T06:12:47.875Z,2.71
2022-11-22T06:15:16.211Z,2.65
2022-11-22T06:17:44.751Z,2.64
2022-11-22T06:20:13.688Z,2.59
2022-11-22T06:22:42.028Z,2.71
2022-11-22T06:25:11.235Z,2.81
2022-11-22T06:27:39.608Z,2.80
2022-11-22T06:30:11.065Z,2.82
2022-11-22T06:32:39.410Z,2.78
2022-11-22T06:35:08.685Z,2.96
2022-11-22T06:37:37.357Z,2.96
2022-11-22T06:40:07.477Z,2.95
2022-11-22T06:42:35.846Z,2.95
2022-11-22T06:45:04.174Z,3.07
2022-11-22T06:47:34.224Z,3.16
2022-11-22T06:50:02.568Z,3.18
2022-11-22T06:52:30.923Z,3.27
2022-11-22T06:54:59.228Z,3.47
2022-11-22T06:57:28.042Z,3.20
2022-11-22T06:59:56.333Z,3.18
2022-11-22T07:02:24.635Z,3.28
2022-11-22T07:05:23.402Z,3.23
2022-11-22T07:07:43.451Z,3.27
2022-11-22T07:10:12.061Z,3.27
2022-11-22T07:12:40.401Z,3.26
2022-11-22T07:15:09.444Z,3.25
2022-11-22T07:17:37.888Z,3.30
2022-11-22T07:20:08.847Z,3.27
2022-11-22T07:22:37.251Z,3.22
2022-11-22T07:25:06.385Z,3.18
2022-11-22T07:27:35.103Z,3.11
2022-11-22T07:30:04.774Z,3.09
2022-11-22T07:32:33.052Z,3.15
2022-11-22T07:35:01.455Z,3.20
2022-11-22T07:37:32.326Z,3.18
2022-11-22T07:40:00.638Z,3.22
2022-11-22T07:42:31.061Z,3.30
2022-11-22T07:44:59.408Z,3.46
2022-11-22T07:47:28.196Z,3.49
2022-11-22T07:49:56.522Z,3.37
2022-11-22T07:52:24.962Z,3.46
2022-11-22T07:54:54.839Z,3.61
2022-11-22T07:57:23.196Z,3.53
2022-11-22T07:59:51.472Z,3.64
2022-11-22T08:02:20.020Z,3.71
2022-11-22T08:04:48.309Z,3.72
2022-11-22T08:07:16.653Z,3.71
2022-11-22T08:09:45.921Z,3.79
2022-11-22T08:12:15.639Z,3.93
2022-11-22T08:14:44.011Z,3.96
2022-11-22T08:17:12.281Z,3.77
2022-11-22T08:19:40.618Z,3.77
2022-11-22T08:22:08.888Z,3.80
2022-11-22T08:24:37.137Z,3.83
2022-11-22T08:27:05.659Z,3.74
2022-11-22T08:29:35.471Z,3.81
2022-11-22T08:32:03.844Z,3.92
2022-11-22T08:34:32.373Z,4.00
2022-11-22T08:37:00.772Z,4.03
2022-11-22T08:39:29.319Z,4.13
2022-11-22T08:41:57.857Z,4.16
2022-11-22T08:44:26.302Z,4.07
2022-11-22T08:46:57.254Z,4.11
2022-11-22T08:49:25.571Z,4.26
2022-11-22T08:51:53.887Z,4.46
2022-11-22T08:54:22.262Z,4.57
2022-11-22T08:56:51.386Z,4.53
2022-11-22T08:59:20.102Z,4.56
2022-11-22T09:01:48.609Z,4.64
2022-11-22T09:04:19.044Z,4.80
2022-11-22T09:09:37.943Z,4.38
2022-11-22T09:12:07.570Z,4.43
2022-11-22T09:14:36.354Z,4.40
2022-11-22T09:17:05.954Z,4.47
2022-11-22T09:19:35.705Z,4.78
2022-11-22T09:22:04.221Z,4.96
2022-11-22T09:24:32.574Z,4.84
2022-11-22T09:27:01.219Z,5.13
2022-11-22T09:29:30.751Z,5.09
2022-11-22T09:31:59.244Z,5.08
2022-11-22T09:34:27.775Z,5.13
2022-11-22T09:36:57.763Z,5.16
2022-11-22T09:39:26.174Z,5.30
2022-11-22T09:42:23.383Z,5.40
2022-11-22T09:45:17.586Z,5.77
2022-11-22T09:47:53.727Z,5.98
2022-11-22T09:50:29.672Z,5.98
2022-11-22T09:53:04.834Z,5.73
2022-11-22T09:55:37.983Z,5.87
2022-11-22T09:58:12.739Z,5.76
2022-11-22T10:00:46.478Z,5.88
2022-11-22T10:03:24.207Z,5.73
2022-11-22T10:05:54.042Z,6.00
2022-11-22T10:08:33.732Z,6.05
2022-11-22T10:11:03.063Z,6.26
2022-11-22T10:13:37.115Z,6.26
2022-11-22T10:16:11.593Z,6.12
2022-11-22T10:18:43.471Z,6.09
2022-11-22T10:21:14.103Z,6.07
2022-11-22T10:23:44.484Z,6.17
2022-11-22T10:26:21.990Z,5.95
2022-11-22T10:28:57.982Z,5.92
2022-11-22T10:31:28.802Z,5.68
2022-11-22T10:34:03.335Z,5.70
2022-11-22T10:36:36.994Z,5.85
2022-11-22T10:39:19.956Z,5.86
2022-11-22T10:42:00.180Z,5.59
2022-11-22T10:44:37.194Z,5.66
2022-11-22T10:47:13.155Z,5.67
2022-11-22T10:49:49.305Z,6.29
2022-11-22T10:52:24.251Z,6.19
2022-11-22T10:55:01.211Z,6.50
2022-11-22T10:57:35.201Z,6.07
2022-11-22T11:00:16.940Z,6.47
2022-11-22T11:03:01.567Z,6.41
2022-11-22T11:05:37.315Z,6.17
2022-11-22T11:08:36.617Z,6.32
2022-11-22T11:10:56.171Z,6.41
2022-11-22T11:13:26.312Z,6.61
2022-11-22T11:15:57.106Z,6.58
2022-11-22T11:18:30.247Z,6.73
2022-11-22T11:20:58.646Z,6.82
2022-11-22T11:23:27.087Z,6.83
2022-11-22T11:25:57.142Z,6.81
2022-11-22T11:28:28.305Z,7.11
2022-11-22T11:31:01.113Z,7.51
2022-11-22T11:33:31.153Z,7.51
2022-11-22T11:36:05.057Z,7.54
2022-11-22T11:38:36.121Z,7.28
2022-11-22T11:41:23.372Z,7.40
2022-11-22T11:43:53.510Z,7.26
2022-11-22T11:46:23.325Z,7.12
2022-11-22T11:48:52.505Z,7.26
2022-11-22T11:51:27.019Z,7.16
2022-11-22T11:53:58.977Z,7.16
2022-11-22T11:56:35.378Z,7.13
2022-11-22T11:59:09.144Z,7.23
2022-11-22T12:01:39.120Z,7.17
2022-11-22T12:04:08.622Z,7.10
2022-11-22T12:06:37.902Z,7.11
2022-11-22T12:09:29.693Z,7.00
2022-11-22T12:12:04.254Z,6.83
2022-11-22T12:15:03.285Z,6.95
2022-11-22T12:17:28.017Z,6.92
2022-11-22T12:20:03.309Z,6.82
2022-11-22T12:22:49.323Z,6.85
2022-11-22T12:25:32.622Z,6.72
2022-11-22T12:28:12.349Z,6.70
2022-11-22T12:30:40.898Z,6.63
2022-11-22T12:33:12.131Z,6.52
2022-11-22T12:35:44.174Z,6.39
2022-11-22T12:38:15.838Z,6.40
2022-11-22T12:40:45.895Z,6.27
2022-11-22T12:43:19.479Z,6.09
2022-11-22T12:45:50.578Z,6.00
2022-11-22T12:48:22.276Z,5.94
2022-11-22T12:50:54.038Z,5.90
2022-11-22T12:53:26.128Z,5.84
2022-11-22T12:55:59.842Z,5.67
2022-11-22T12:58:35.185Z,5.73
2022-11-22T13:01:10.408Z,5.60
2022-11-22T13:03:41.792Z,5.75
2022-11-22T13:06:11.708Z,5.64
2022-11-22T13:08:46.474Z,5.58
2022-11-22T13:11:19.576Z,5.32
2022-11-22T13:13:52.465Z,5.40
2022-11-22T13:16:20.819Z,5.25
2022-11-22T13:18:52.731Z,5.06
2022-11-22T13:21:26.005Z,4.96
2022-11-22T13:24:04.613Z,4.96
2022-11-22T13:26:39.111Z,4.86
2022-11-22T13:29:18.313Z,4.88
2022-11-22T13:32:09.062Z,4.91
2022-11-22T13:34:39.305Z,4.77
2022-11-22T13:37:11.947Z,5.09
2022-11-22T13:39:45.042Z,4.87
2022-11-22T13:42:16.789Z,4.69
2022-11-22T13:45:07.242Z,4.44
2022-11-22T13:47:38.372Z,4.42
2022-11-22T13:50:40.210Z,4.75
2022-11-22T13:53:24.012Z,4.46
2022-11-22T13:55:52.351Z,4.51
2022-11-22T13:58:56.517Z,4.36
2022-11-22T14:01:48.379Z,4.31
2022-11-22T14:04:21.986Z,4.15
2022-11-22T14:06:51.374Z,4.21
2022-11-22T14:09:35.013Z,4.28
2022-11-22T14:12:20.415Z,4.26
2022-11-22T14:14:56.029Z,4.30
2022-11-22T14:17:41.570Z,4.47
2022-11-22T14:20:24.095Z,4.63
2022-11-22T14:22:57.293Z,4.56
2022-11-22T14:25:45.919Z,4.76
2022-11-22T14:28:26.701Z,4.44
2022-11-22T14:30:55.404Z,4.29
2022-11-22T14:33:26.538Z,4.33
2022-11-22T14:36:16.204Z,4.18
2022-11-22T14:38:44.915Z,4.22
2022-11-22T14:41:43.537Z,4.17
2022-11-22T14:44:17.620Z,4.27
2022-11-22T14:46:54.092Z,4.33
2022-11-22T14:49:42.423Z,4.46
2022-11-22T14:52:21.698Z,4.28
2022-11-22T14:54:52.107Z,4.31
2022-11-22T14:57:21.863Z,4.20
2022-11-22T15:00:06.798Z,4.43
2022-11-22T15:03:12.031Z,4.53
2022-11-22T15:09:09.903Z,4.17
2022-11-22T15:09:10.195Z,4.18
2022-11-22T15:12:02.479Z,4.13
2022-11-22T15:58:00.970Z,4.14
2022-11-22T16:00:30.555Z,4.08
2022-11-22T16:03:01.852Z,4.05
2022-11-22T16:06:06.251Z,4.06
2022-11-22T16:08:22.306Z,4.16
2022-11-22T16:10:52.050Z,4.48
2022-11-22T16:13:30.573Z,4.33
2022-11-22T16:16:07.612Z,4.18
2022-11-22T16:18:41.181Z,4.22
2022-11-22T16:21:21.232Z,4.10
2022-11-22T16:24:12.727Z,4.11
2022-11-22T16:26:41.860Z,4.30
2022-11-22T16:29:32.652Z,4.43
2022-11-22T16:32:06.760Z,4.55
2022-11-22T16:34:36.662Z,4.35
2022-11-22T16:37:27.010Z,4.30
2022-11-22T16:39:56.243Z,4.16
2022-11-22T16:42:26.085Z,3.98
2022-11-22T16:45:03.584Z,4.16
2022-11-22T16:47:33.503Z,4.13
2022-11-22T16:50:02.696Z,4.31
2022-11-22T16:52:32.687Z,4.14
2022-11-22T16:55:02.458Z,4.21
2022-11-22T16:57:31.618Z,4.20
2022-11-22T17:00:02.295Z,4.25
2022-11-22T17:02:32.096Z,4.07
2022-11-22T17:05:01.649Z,4.09
2022-11-22T17:07:30.943Z,4.07
2022-11-22T17:10:00.674Z,4.00
2022-11-22T17:12:33.636Z,4.05
2022-11-22T17:15:07.002Z,4.25
2022-11-22T17:17:38.418Z,4.13
2022-11-22T17:20:10.494Z,3.91
2022-11-22T17:22:42.531Z,3.85
2022-11-22T17:25:14.614Z,3.84
2022-11-22T17:27:44.744Z,3.89
2022-11-22T17:30:19.639Z,3.93
2022-11-22T17:32:49.975Z,3.64
2022-11-22T17:35:20.543Z,3.71
2022-11-22T17:37:50.403Z,3.85
2022-11-22T17:40:21.677Z,3.82
2022-11-22T17:42:51.343Z,3.69
2022-11-22T17:45:26.115Z,3.72
2022-11-22T17:47:59.885Z,3.70
2022-11-22T17:50:34.234Z,3.69
2022-11-22T17:53:04.989Z,3.63
2022-11-22T17:56:08.527Z,3.74
2022-11-22T17:58:30.117Z,3.87
2022-11-22T18:01:10.451Z,4.10
2022-11-22T18:03:42.530Z,4.06
2022-11-22T18:06:13.497Z,3.81
2022-11-22T18:08:47.259Z,3.82
2022-11-22T18:11:18.613Z,3.91
2022-11-22T18:13:48.731Z,3.85
2022-11-22T18:16:29.175Z,3.84
2022-11-22T18:18:59.378Z,3.93
2022-11-22T18:21:30.824Z,3.90
2022-11-22T18:24:03.835Z,3.74
2022-11-22T18:26:42.040Z,3.80
2022-11-22T18:32:08.073Z,3.98
2022-11-22T18:34:40.100Z,3.77
2022-11-22T18:37:12.249Z,3.91
2022-11-22T18:39:42.868Z,4.17
2022-11-22T18:42:17.214Z,4.10
2022-11-22T18:44:47.531Z,3.89
2022-11-22T18:47:20.056Z,4.12
2022-11-22T18:49:51.377Z,3.88
2022-11-22T18:52:23.187Z,4.02
2022-11-22T18:54:55.171Z,4.12
2022-11-22T18:57:26.733Z,4.06
2022-11-22T18:59:57.415Z,4.17
2022-11-22T19:02:32.179Z,3.87
2022-11-22T19:05:02.904Z,3.83
2022-11-22T19:07:33.375Z,3.96
2022-11-22T19:10:04.800Z,4.18
2022-11-22T19:12:35.613Z,3.80
2022-11-22T19:15:08.856Z,3.71
2022-11-22T19:17:42.925Z,4.06
2022-11-22T19:20:39.171Z,4.37
2022-11-22T19:23:06.434Z,4.38
2022-11-22T19:25:37.910Z,4.10
2022-11-22T19:28:08.076Z,4.12
2022-11-22T19:30:42.933Z,3.82
2022-11-22T19:33:18.024Z,3.84
2022-11-22T19:35:58.082Z,3.82
2022-11-22T19:38:29.831Z,4.15
2022-11-22T19:41:02.452Z,4.07
2022-11-22T19:43:33.959Z,4.11
2022-11-22T19:46:04.599Z,4.31
2022-11-22T19:48:43.791Z,3.96
2022-11-22T19:51:21.822Z,3.85
2022-11-22T19:53:57.100Z,3.77
2022-11-22T19:56:30.697Z,3.79
2022-11-22T19:59:02.821Z,3.86
2022-11-22T20:01:34.839Z,3.97
2022-11-22T20:04:08.053Z,4.34
2022-11-22T20:06:40.775Z,4.36
2022-11-22T20:09:14.043Z,4.11
2022-11-22T20:11:47.354Z,4.11
2022-11-22T20:14:18.107Z,4.34
2022-11-22T20:16:49.937Z,4.32
2022-11-22T20:19:21.713Z,4.32
2022-11-22T20:21:52.509Z,4.27
2022-11-22T20:24:22.976Z,3.89
2022-11-22T20:26:53.973Z,3.88
2022-11-22T20:29:25.742Z,4.04
2022-11-22T20:32:00.312Z,3.70
2022-11-22T20:34:34.258Z,3.75
2022-11-22T20:37:07.514Z,3.97
2022-11-22T20:39:39.087Z,3.93
2022-11-22T20:42:33.544Z,3.89
2022-11-22T20:45:05.805Z,3.68
2022-11-22T20:47:36.536Z,4.00
2022-11-22T20:50:11.453Z,3.58
2022-11-22T20:52:42.797Z,3.87
2022-11-22T20:55:14.185Z,3.79
2022-11-22T20:57:44.411Z,4.04
2022-11-22T21:00:16.562Z,3.97
2022-11-22T21:02:48.841Z,3.86
2022-11-22T21:05:20.283Z,3.61
2022-11-22T21:08:02.378Z,3.57
2022-11-22T21:10:33.360Z,3.81
2022-11-22T21:13:02.620Z,4.25
2022-11-22T21:15:32.334Z,4.12
2022-11-22T21:18:24.117Z,3.82
2022-11-22T21:20:55.552Z,3.67
2022-11-22T21:23:27.169Z,3.85
2022-11-22T21:25:56.037Z,3.69
2022-11-22T21:28:25.235Z,3.79
2022-11-22T21:30:55.347Z,3.77
2022-11-22T21:33:27.803Z,3.75
2022-11-22T21:36:07.296Z,3.80
2022-11-22T21:38:40.477Z,3.83
2022-11-22T21:44:02.530Z,3.81
2022-11-22T21:46:35.524Z,3.80
2022-11-22T21:49:04.159Z,3.73
2022-11-22T21:51:34.115Z,3.75
2022-11-22T21:54:03.618Z,3.75
2022-11-22T21:56:33.033Z,3.75
2022-11-22T21:59:05.008Z,3.72
2022-11-22T22:01:37.916Z,3.61
2022-11-22T22:04:06.869Z,3.69
2022-11-22T22:06:39.493Z,3.69
2022-11-22T22:09:10.823Z,3.76
2022-11-22T22:11:45.658Z,4.22
2022-11-22T22:14:14.211Z,3.79
2022-11-22T22:16:43.416Z,3.86
2022-11-22T22:19:11.911Z,3.83
2022-11-22T22:21:41.820Z,3.70
2022-11-22T22:24:11.526Z,3.71
2022-11-22T22:26:42.627Z,3.65
2022-11-22T22:29:12.259Z,3.61
2022-11-22T22:31:40.598Z,3.49
2022-11-22T22:34:09.999Z,3.51
2022-11-22T22:36:38.373Z,3.67
2022-11-22T22:39:12.173Z,3.87
2022-11-22T22:41:40.687Z,3.99
2022-11-22T22:44:09.193Z,3.90
2022-11-22T22:46:37.860Z,3.85
2022-11-22T22:49:07.777Z,4.00
2022-11-22T22:51:36.003Z,3.92
2022-11-22T22:54:04.478Z,3.75
2022-11-22T22:56:34.154Z,3.67
2022-11-22T22:59:02.418Z,3.72
2022-11-22T23:01:32.205Z,4.12
2022-11-22T23:04:01.870Z,3.74
2022-11-22T23:06:31.924Z,3.66
2022-11-22T23:09:00.856Z,3.74
2022-11-22T23:11:44.699Z,3.84
2022-11-22T23:14:17.130Z,3.93
2022-11-22T23:16:45.429Z,3.88
2022-11-22T23:19:13.942Z,3.92
2022-11-22T23:21:42.243Z,3.80
2022-11-22T23:24:10.743Z,3.91
2022-11-22T23:26:39.431Z,3.73
2022-11-22T23:29:07.728Z,3.75
2022-11-22T23:31:37.718Z,3.66
2022-11-22T23:34:05.990Z,3.67
2022-11-22T23:36:40.242Z,3.60
2022-11-22T23:39:09.274Z,3.69
2022-11-22T23:41:37.574Z,3.67
2022-11-22T23:44:06.115Z,3.69
2022-11-22T23:46:34.376Z,3.71
2022-11-22T23:49:06.135Z,3.77
2022-11-22T23:51:35.039Z,3.85
2022-11-22T23:54:05.214Z,3.85
2022-11-22T23:56:34.933Z,3.81
2022-11-22T23:59:05.060Z,3.79
